Terminal Aerodrome Forecast
Issued by NWS

Home | Current Version | Previous Version | Text Only | Print | Product List | Glossary On
Versions: 1 2 3 4 5 6 7 8 9 10 11 12 13 14 15
000
FTUS44 KEPZ 222300
TAFTCS
TAF
KTCS 222339Z 2300/2324 19006KT P6SM FEW080 SCT250
     FM230300 VRB05KT P6SM SKC
     FM230600 31006KT P6SM SKC
     FM231500 00000KT P6SM SKC=

USA.gov is the U.S. government's official web portal to all federal, state and local government web resources and services.